Time;durP1;ratioP1;P1;durP2;ratioP2;P2;SDS_P1;SDS_P2;PMS_P1;PMS_P2;Temp;Humidity;BMP_temperature;BMP_pressure;BME280_temperature;BME280_humidity;BME280_pressure;Samples;Min_cycle;Max_cycle;Signal;HPM_P1;HPM_P2
2023/07/26 00:01:58;;;;;;;7.38;4.22;;;;;;;14.49;100.00;99324.38;12217063;19;20031;-83
2023/07/26 00:06:01;;;;;;;11.65;4.25;;;;;;;14.52;100.00;99329.38;12191470;19;20393;-84
2023/07/26 00:10:02;;;;;;;;;;;;;;;14.52;100.00;99327.44;12214390;19;20605;-85
2023/07/26 00:14:05;;;;;;;7.40;3.90;;;;;;;14.54;100.00;99330.72;12216056;19;19927;-83
2023/07/26 00:18:07;;;;;;;7.87;4.27;;;;;;;14.56;100.00;99324.91;12192678;19;20082;-84
2023/07/26 00:22:09;;;;;;;9.80;4.13;;;;;;;14.57;100.00;99324.63;12213224;19;20029;-84
2023/07/26 00:26:11;;;;;;;8.68;3.92;;;;;;;14.59;100.00;99327.91;12203527;19;20791;-82
2023/07/26 00:30:14;;;;;;;6.95;4.07;;;;;;;14.58;100.00;99326.28;12196236;19;20006;-84
2023/07/26 00:34:16;;;;;;;7.65;4.22;;;;;;;14.60;100.00;99331.53;12205269;19;20010;-85
2023/07/26 00:38:18;;;;;;;9.70;4.25;;;;;;;14.60;100.00;99334.28;12215671;19;20030;-84
2023/07/26 00:42:19;;;;;;;7.57;4.32;;;;;;;14.60;100.00;99350.94;12192331;19;20379;-83
2023/07/26 00:46:21;;;;;;;7.75;4.35;;;;;;;14.61;100.00;99351.78;12214880;19;20018;-82
2023/07/26 00:50:24;;;;;;;6.87;4.00;;;;;;;14.62;100.00;99353.44;12215817;19;20010;-83
2023/07/26 00:54:26;;;;;;;8.83;4.30;;;;;;;14.61;100.00;99351.78;12193536;19;20030;-83
2023/07/26 00:58:28;;;;;;;9.48;3.72;;;;;;;14.59;100.00;99352.88;12220664;19;20010;-83
2023/07/26 01:02:30;;;;;;;5.32;3.42;;;;;;;14.57;100.00;99355.13;12219672;19;20368;-84
2023/07/26 01:07:02;;;;;;;12.50;3.80;;;;;;;14.54;100.00;99369.53;12216603;19;20459;-80
2023/07/26 01:11:16;;;;;;;5.47;3.72;;;;;;;14.49;100.00;99365.97;12245595;19;20022;-82
2023/07/26 01:15:24;;;;;;;6.35;3.60;;;;;;;14.43;100.00;99362.38;12215153;19;20025;-81
2023/07/26 01:19:26;;;;;;;8.88;4.35;;;;;;;14.40;100.00;99362.13;12227558;19;20002;-84
2023/07/26 01:23:28;;;;;;;8.90;3.72;;;;;;;14.39;100.00;99366.00;12211294;19;20022;-84
2023/07/26 01:27:29;;;;;;;8.10;3.92;;;;;;;14.40;100.00;99368.50;12188799;19;20064;-81
2023/07/26 01:31:31;;;;;;;5.45;3.50;;;;;;;14.41;100.00;99364.59;12211561;19;20022;-82
2023/07/26 01:35:35;;;;;;;5.80;3.47;;;;;;;14.41;100.00;99363.78;12212698;19;20018;-83
2023/07/26 01:39:38;;;;;;;8.43;3.63;;;;;;;14.41;100.00;99363.78;12190592;19;20514;-85
2023/07/26 01:43:40;;;;;;;;;;;;;;;14.39;100.00;99369.59;12212004;19;20003;-85
2023/07/26 01:47:42;;;;;;;6.53;3.33;;;;;;;14.38;100.00;99373.50;12192461;19;19924;-84
2023/07/26 01:51:44;;;;;;;8.43;3.45;;;;;;;14.36;100.00;99367.41;12214434;19;20496;-84
2023/07/26 01:55:46;;;;;;;7.88;3.63;;;;;;;14.30;100.00;99368.53;12224133;19;20011;-83
2023/07/26 01:59:48;;;;;;;10.90;3.83;;;;;;;14.21;100.00;99375.81;12206430;19;20368;-82
2023/07/26 02:03:50;;;;;;;7.70;3.97;;;;;;;14.16;100.00;99375.81;12232157;19;20026;-83
2023/07/26 02:07:52;;;;;;;9.65;3.80;;;;;;;14.10;100.00;99380.56;12220050;19;20475;-83
2023/07/26 02:11:54;;;;;;;10.77;4.43;;;;;;;14.06;100.00;99373.94;12198620;19;20034;-83
2023/07/26 02:15:57;;;;;;;7.22;4.18;;;;;;;14.00;100.00;99380.59;12219738;19;20016;-83
2023/07/26 02:19:59;;;;;;;7.60;4.18;;;;;;;13.91;100.00;99380.34;12216728;19;20028;-83
2023/07/26 02:24:00;;;;;;;7.97;3.88;;;;;;;13.86;100.00;99383.13;12195811;19;20013;-83
2023/07/26 02:28:03;;;;;;;7.03;3.92;;;;;;;13.80;100.00;99375.94;12215693;19;20011;-85
2023/07/26 02:32:05;;;;;;;7.72;3.80;;;;;;;13.76;100.00;99385.94;12207592;19;20010;-84
2023/07/26 02:36:07;;;;;;;5.57;4.03;;;;;;;13.68;100.00;99388.19;12195320;19;20011;-84
2023/07/26 02:40:09;;;;;;;12.43;4.30;;;;;;;13.60;100.00;99391.53;12216743;19;20011;-83
2023/07/26 02:44:11;;;;;;;9.48;3.75;;;;;;;13.59;100.00;99392.66;12214967;19;20018;-84
2023/07/26 02:48:13;;;;;;;5.55;3.80;;;;;;;13.59;100.00;99394.56;12195271;19;20046;-84
2023/07/26 02:52:15;;;;;;;11.52;4.03;;;;;;;13.57;100.00;99392.09;12217318;19;20506;-83
2023/07/26 02:56:17;;;;;;;8.07;4.13;;;;;;;13.52;100.00;99389.31;12219615;19;20318;-82
2023/07/26 03:00:19;;;;;;;5.63;3.85;;;;;;;13.45;100.00;99394.31;12196148;19;20038;-82
2023/07/26 03:04:20;;;;;;;6.25;3.85;;;;;;;13.37;100.00;99403.19;12210926;19;20804;-82
2023/07/26 03:08:22;;;;;;;9.50;4.20;;;;;;;13.35;100.00;99394.31;12216093;19;20091;-83
2023/07/26 03:12:24;;;;;;;7.18;4.50;;;;;;;13.35;100.00;99403.44;12192320;19;20006;-85
2023/07/26 03:16:26;;;;;;;6.07;3.70;;;;;;;13.35;100.00;99402.63;12218014;19;20455;-82
2023/07/26 03:20:27;;;;;;;8.80;3.90;;;;;;;13.38;100.00;99407.59;12220144;19;20103;-82
2023/07/26 03:24:29;;;;;;;9.57;4.30;;;;;;;13.40;100.00;99410.94;12195508;19;20002;-83
2023/07/26 03:28:31;;;;;;;5.53;3.42;;;;;;;13.43;100.00;99404.84;12216584;19;20027;-84
2023/07/26 03:32:33;;;;;;;6.40;3.67;;;;;;;13.50;100.00;99408.13;12219974;19;20482;-82
2023/07/26 03:36:35;;;;;;;7.00;3.40;;;;;;;13.56;100.00;99417.25;12196026;19;20010;-84
2023/07/26 03:40:38;;;;;;;9.20;3.78;;;;;;;13.62;100.00;99418.91;12220093;19;20018;-82
2023/07/26 03:44:42;;;;;;;9.18;4.30;;;;;;;13.64;100.00;99425.84;12190685;19;20035;-82
2023/07/26 03:48:43;;;;;;;7.70;3.50;;;;;;;13.71;100.00;99424.72;12220169;19;20074;-84
2023/07/26 03:52:46;;;;;;;6.20;4.07;;;;;;;13.75;100.00;99431.38;12214734;19;20010;-84
2023/07/26 03:56:47;;;;;;;5.72;3.75;;;;;;;13.77;100.00;99438.28;12197719;19;20018;-82
2023/07/26 04:00:50;;;;;;;6.75;4.18;;;;;;;13.79;100.00;99435.22;12216958;19;20010;-83
2023/07/26 04:04:52;;;;;;;11.68;4.20;;;;;;;13.82;100.00;99440.19;12217844;19;20011;-82
2023/07/26 04:08:55;;;;;;;8.48;4.45;;;;;;;13.84;100.00;99438.00;12195221;19;20015;-83
2023/07/26 04:12:57;;;;;;;8.35;3.90;;;;;;;13.86;100.00;99431.06;12215974;19;20028;-84
2023/07/26 04:16:59;;;;;;;6.10;3.72;;;;;;;13.86;100.00;99433.84;12212643;19;20023;-81
2023/07/26 04:21:01;;;;;;;7.70;4.32;;;;;;;13.88;100.00;99436.31;12194859;19;20014;-83
2023/07/26 04:25:03;;;;;;;5.97;4.13;;;;;;;13.88;100.00;99439.91;12212705;19;20016;-83
2023/07/26 04:29:05;;;;;;;9.13;3.70;;;;;;;13.87;100.00;99448.50;12217972;19;20031;-83
2023/07/26 04:33:07;;;;;;;10.50;5.10;;;;;;;13.90;100.00;99456.25;12191455;19;20090;-82
2023/07/26 04:37:09;;;;;;;6.03;4.18;;;;;;;13.93;100.00;99458.47;12214864;19;20035;-82
2023/07/26 04:41:10;;;;;;;7.78;4.65;;;;;;;13.97;100.00;99455.97;12215471;19;20023;-82
2023/07/26 04:45:12;;;;;;;9.07;5.38;;;;;;;14.00;100.00;99452.63;12193624;19;20033;-82
2023/07/26 04:49:14;;;;;;;9.45;4.85;;;;;;;14.02;100.00;99448.47;12213708;19;20038;-81
2023/07/26 04:53:17;;;;;;;7.53;5.05;;;;;;;14.06;100.00;99457.88;12215727;19;20011;-83
2023/07/26 04:57:18;;;;;;;10.38;5.30;;;;;;;14.08;100.00;99457.59;12193444;19;20011;-83
2023/07/26 05:01:20;;;;;;;11.18;5.32;;;;;;;14.09;100.00;99460.06;12214954;19;20006;-84
2023/07/26 05:05:22;;;;;;;13.48;5.47;;;;;;;14.17;100.00;99455.06;12210373;19;20070;-82
2023/07/26 05:09:24;;;;;;;9.43;5.88;;;;;;;14.27;100.00;99460.56;12190746;19;20006;-84
2023/07/26 05:13:26;;;;;;;9.98;5.55;;;;;;;14.29;100.00;99467.50;12211681;19;20463;-84
2023/07/26 05:17:27;;;;;;;8.15;5.30;;;;;;;14.41;100.00;99466.34;12210800;19;20086;-85
2023/07/26 05:21:29;;;;;;;9.77;5.53;;;;;;;14.51;100.00;99464.38;12190186;19;20075;-84
2023/07/26 05:25:32;;;;;;;7.97;5.25;;;;;;;14.61;100.00;99469.06;12211183;19;20015;-82
2023/07/26 05:29:33;;;;;;;10.70;5.90;;;;;;;14.68;100.00;99460.44;12211618;19;20027;-83
2023/07/26 05:33:35;;;;;;;7.72;5.45;;;;;;;14.69;100.00;99471.22;12188540;19;20248;-83
2023/07/26 05:37:38;;;;;;;11.15;6.20;;;;;;;14.78;100.00;99474.22;12211703;19;20018;-81
2023/07/26 05:41:39;;;;;;;10.30;6.15;;;;;;;14.90;100.00;99474.75;12190676;19;20015;-83
2023/07/26 05:45:42;;;;;;;;;;;;;;;14.95;100.00;99485.78;12211634;19;20077;-83
2023/07/26 05:49:44;;;;;;;12.80;7.00;;;;;;;14.97;100.00;99500.22;12209614;19;19906;-83
2023/07/26 05:53:46;;;;;;;10.57;6.93;;;;;;;14.94;100.00;99503.56;12188908;19;20026;-86
2023/07/26 05:57:48;;;;;;;10.68;7.70;;;;;;;14.91;100.00;99493.03;12209982;19;20011;-84
2023/07/26 06:01:49;;;;;;;10.60;6.78;;;;;;;14.97;100.00;99499.38;12211849;19;20015;-84
2023/07/26 06:05:51;;;;;;;16.77;7.93;;;;;;;15.01;100.00;99506.00;12182322;19;20090;-85
2023/07/26 06:09:54;;;;;;;14.48;6.93;;;;;;;15.12;100.00;99509.56;12199849;19;20729;-86
2023/07/26 06:13:55;;;;;;;6.27;4.60;;;;;;;15.19;100.00;99508.09;12198451;19;20027;-85
2023/07/26 06:17:57;;;;;;;11.23;5.03;;;;;;;15.32;100.00;99505.78;12180511;19;20010;-84
2023/07/26 06:21:59;;;;;;;11.55;5.20;;;;;;;15.48;100.00;99510.94;12210467;19;20033;-83
2023/07/26 06:26:01;;;;;;;10.88;5.07;;;;;;;15.48;100.00;99508.19;12208048;19;20107;-80
2023/07/26 06:30:03;;;;;;;8.65;5.18;;;;;;;15.44;100.00;99509.88;12188254;19;20010;-86
2023/07/26 06:34:05;;;;;;;14.57;5.60;;;;;;;15.35;100.00;99519.94;12212511;19;20340;-85
2023/07/26 06:38:09;;;;;;;9.02;4.97;;;;;;;15.21;100.00;99522.53;12209990;19;20078;-84
2023/07/26 06:42:10;;;;;;;8.80;5.00;;;;;;;15.14;100.00;99516.50;12203266;19;20042;-84
2023/07/26 06:46:12;;;;;;;8.55;5.68;;;;;;;15.12;100.00;99524.25;12221835;19;20021;-86
2023/07/26 06:50:17;;;;;;;8.70;5.25;;;;;;;15.05;100.00;99532.09;12222943;19;20015;-84
2023/07/26 06:54:19;;;;;;;8.82;5.35;;;;;;;15.02;100.00;99533.47;12201912;19;20017;-85
2023/07/26 06:58:20;;;;;;;9.38;5.68;;;;;;;14.98;100.00;99543.47;12228457;19;20007;-87
2023/07/26 07:02:22;;;;;;;13.02;6.30;;;;;;;14.87;100.00;99544.63;12226877;19;20003;-84
2023/07/26 07:06:24;;;;;;;10.90;6.65;;;;;;;14.73;100.00;99543.59;12199965;19;20495;-85
2023/07/26 07:15:30;;;;;;;7.72;6.65;;;;;;;14.64;100.00;99550.88;12159256;19;20022;-84
2023/07/26 07:19:31;;;;;;;14.02;7.43;;;;;;;14.58;100.00;99548.09;12210680;19;20010;-85
2023/07/26 07:23:35;;;;;;;9.98;7.13;;;;;;;14.47;100.00;99554.75;12215461;19;20006;-84
2023/07/26 07:27:37;;;;;;;10.80;8.00;;;;;;;14.32;100.00;99563.13;12175052;19;20147;-82
2023/07/26 07:31:39;;;;;;;10.13;6.80;;;;;;;14.25;100.00;99562.59;12204669;19;20368;-80
2023/07/26 07:35:41;;;;;;;10.52;7.72;;;;;;;14.22;100.00;99563.13;12198929;19;20003;-83
2023/07/26 07:39:43;;;;;;;10.77;7.50;;;;;;;14.22;100.00;99561.19;12214705;19;20011;-81
2023/07/26 07:43:44;;;;;;;11.88;7.78;;;;;;;14.20;100.00;99557.03;12219460;19;20010;-81
2023/07/26 07:47:46;;;;;;;18.17;9.23;;;;;;;14.20;100.00;99562.59;12198724;19;20018;-82
2023/07/26 07:51:48;;;;;;;12.13;8.20;;;;;;;14.22;100.00;99563.13;12215125;19;20019;-81
2023/07/26 07:55:51;;;;;;;12.75;7.80;;;;;;;14.37;100.00;99557.56;12222374;19;20082;-82
2023/07/26 07:59:53;;;;;;;;;;;;;;;14.65;100.00;99566.38;12198707;19;20497;-82
2023/07/26 08:04:02;;;;;;;9.95;6.30;;;;;;;14.99;100.00;99558.16;12237187;19;19910;-83
2023/07/26 08:08:06;;;;;;;8.90;6.53;;;;;;;15.20;100.00;99567.22;12218903;19;20427;-84
2023/07/26 08:12:08;;;;;;;7.68;5.03;;;;;;;15.34;100.00;99568.25;12191607;19;20010;-85
2023/07/26 08:16:10;;;;;;;9.85;5.45;;;;;;;15.63;100.00;99560.00;12217247;19;19999;-85
2023/07/26 08:20:12;;;;;;;7.57;4.18;;;;;;;15.94;100.00;99568.97;12215951;19;20021;-86
2023/07/26 08:24:14;;;;;;;7.47;4.18;;;;;;;16.20;100.00;99568.69;12198892;19;20002;-86
2023/07/26 08:28:26;;;;;;;5.70;3.47;;;;;;;16.47;100.00;99561.75;12218133;19;19998;-85
2023/07/26 08:32:29;;;;;;;;;;;;;;;16.58;100.00;99569.69;12214153;19;20030;-86
2023/07/26 08:36:31;;;;;;;5.53;3.63;;;;;;;16.67;100.00;99580.19;12193855;19;19987;-85
2023/07/26 08:40:34;;;;;;;8.85;2.78;;;;;;;16.76;100.00;99564.50;12213532;19;20067;-85
2023/07/26 08:44:37;;;;;;;5.70;3.47;;;;;;;16.68;100.00;99582.66;12218460;19;20019;-84
2023/07/26 08:48:41;;;;;;;5.60;3.20;;;;;;;16.85;100.00;99577.47;12195048;19;20063;-84
2023/07/26 08:52:43;;;;;;;5.60;3.85;;;;;;;17.41;100.00;99578.69;12215541;19;20015;-84
2023/07/26 08:56:45;;;;;;;8.23;3.33;;;;;;;17.97;100.00;99571.44;12201642;19;20018;-82
2023/07/26 09:00:48;;;;;;;6.18;3.35;;;;;;;18.34;100.00;99583.59;12218859;19;20729;-83
2023/07/26 09:04:50;;;;;;;6.75;4.03;;;;;;;18.58;100.00;99577.84;12216084;19;20028;-83
2023/07/26 09:08:52;;;;;;;8.60;2.63;;;;;;;18.75;100.00;99577.28;12197302;19;20021;-83
2023/07/26 09:13:06;;;;;;;5.93;2.90;;;;;;;18.76;100.00;99567.75;12207118;19;20455;-81
2023/07/26 09:17:08;;;;;;;5.57;3.13;;;;;;;18.99;100.00;99565.88;12217273;19;20020;-81
2023/07/26 09:21:10;;;;;;;5.57;3.13;;;;;;;19.40;100.00;99571.41;12187836;19;20082;-79
2023/07/26 09:25:12;;;;;;;5.45;3.67;;;;;;;19.44;100.00;99566.81;12205302;19;20014;-80
2023/07/26 09:29:16;;;;;;;7.30;3.38;;;;;;;19.28;100.00;99568.31;12206323;19;20007;-79
2023/07/26 09:33:21;;;;;;;4.25;2.63;;;;;;;19.16;100.00;99563.28;12184356;19;20050;-79
2023/07/26 09:37:23;;;;;;;6.45;3.65;;;;;;;19.11;100.00;99568.97;12210553;19;20094;-80
2023/07/26 09:41:25;;;;;;;4.90;2.50;;;;;;;19.18;94.41;99565.75;12204543;19;20019;-80
2023/07/26 09:45:27;;;;;;;5.83;3.23;;;;;;;19.51;96.82;99555.22;12186611;19;20072;-81
2023/07/26 09:49:29;;;;;;;4.22;2.33;;;;;;;19.68;94.62;99554.56;12205711;19;20059;-81
2023/07/26 09:53:33;;;;;;;8.50;2.93;;;;;;;19.77;95.20;99552.66;12208337;19;20034;-81
2023/07/26 09:57:38;;;;;;;4.90;2.60;;;;;;;20.05;88.18;99544.97;12186109;19;20256;-79
2023/07/26 10:01:45;;;;;;;3.97;2.58;;;;;;;20.17;87.40;99539.63;12201496;19;20018;-80
2023/07/26 10:05:49;;;;;;;5.05;2.80;;;;;;;20.21;91.01;99537.00;12188001;19;20006;-82
2023/07/26 10:09:53;;;;;;;6.30;2.60;;;;;;;20.53;84.93;99535.88;12203688;19;20014;-81
2023/07/26 10:14:00;;;;;;;7.22;2.80;;;;;;;21.07;77.27;99524.50;12209594;19;20018;-83
2023/07/26 10:18:02;;;;;;;6.78;2.60;;;;;;;21.70;75.56;99522.25;12201490;19;20798;-81
2023/07/26 10:22:06;;;;;;;3.88;2.08;;;;;;;21.44;70.67;99527.84;12213613;19;20011;-84
2023/07/26 10:26:09;;;;;;;5.18;2.28;;;;;;;20.73;77.92;99531.66;12216832;19;20017;-83
2023/07/26 10:30:11;;;;;;;4.70;2.63;;;;;;;20.20;77.78;99527.78;12193608;19;20011;-82
2023/07/26 10:34:20;;;;;;;4.65;2.05;;;;;;;19.83;79.48;99531.81;12219532;19;22238;-84
2023/07/26 10:38:22;;;;;;;5.35;2.20;;;;;;;19.74;81.11;99537.34;12222452;19;20121;-84
2023/07/26 10:42:28;;;;;;;4.05;2.20;;;;;;;19.86;81.46;99533.97;12194985;19;20047;-82
2023/07/26 10:46:46;;;;;;;5.50;1.88;;;;;;;20.23;78.10;99535.53;12221828;19;20002;-84
2023/07/26 10:50:48;;;;;;;5.78;2.30;;;;;;;20.77;77.83;99527.06;12194701;19;20015;-83
2023/07/26 10:54:51;;;;;;;4.53;2.00;;;;;;;21.65;71.97;99526.03;12220401;19;20090;-84
2023/07/26 10:58:54;;;;;;;4.57;2.33;;;;;;;21.57;67.12;99516.50;12216409;19;20015;-85
2023/07/26 11:03:01;;;;;;;3.25;2.22;;;;;;;21.63;64.25;99516.34;12195114;19;20007;-83
2023/07/26 11:07:06;;;;;;;4.88;1.90;;;;;;;21.49;57.65;99508.09;12221714;19;20360;-83
2023/07/26 11:11:08;;;;;;;5.55;2.10;;;;;;;21.45;60.46;99498.69;12215957;19;20022;-82
2023/07/26 11:15:10;;;;;;;5.43;1.90;;;;;;;21.70;59.39;99495.03;12202122;19;20006;-84
2023/07/26 11:19:43;;;;;;;6.43;2.13;;;;;;;21.95;57.71;99487.75;12221870;19;20259;-83
2023/07/26 11:23:45;;;;;;;7.28;1.98;;;;;;;21.90;56.64;99484.28;12201564;19;20007;-83
2023/07/26 11:27:48;;;;;;;5.43;2.23;;;;;;;22.29;55.95;99483.22;12214477;19;20010;-83
2023/07/26 11:31:50;;;;;;;5.38;2.20;;;;;;;22.46;53.86;99471.91;12213789;19;20094;-83
2023/07/26 11:35:52;;;;;;;3.77;1.87;;;;;;;22.84;53.67;99473.00;12194656;19;20481;-84
2023/07/26 11:40:04;;;;;;;4.97;2.17;;;;;;;23.35;51.42;99476.63;12216506;19;20284;-84
2023/07/26 11:44:06;;;;;;;4.43;2.10;;;;;;;23.48;48.94;99474.72;12222724;19;20018;-82
2023/07/26 11:48:10;;;;;;;4.45;2.20;;;;;;;24.51;51.36;99472.81;12197246;19;20013;-83
2023/07/26 11:52:16;;;;;;;4.43;2.35;;;;;;;25.42;46.91;99472.47;12217496;19;20014;-84
2023/07/26 11:56:25;;;;;;;6.63;2.30;;;;;;;25.16;45.03;99469.25;12220288;19;20017;-85
2023/07/26 12:00:27;;;;;;;4.30;2.05;;;;;;;23.46;46.93;99514.41;12197217;19;20022;-83
2023/07/26 12:04:29;;;;;;;48.20;5.15;;;;;;;20.96;73.00;99554.78;12221010;19;20407;-81
2023/07/26 12:08:31;;;;;;;20.50;4.57;;;;;;;17.09;100.00;99568.25;12217094;19;20097;-82
2023/07/26 12:12:40;;;;;;;13.47;4.17;;;;;;;15.16;100.00;99578.06;12188293;19;20039;-81
2023/07/26 12:16:48;;;;;;;12.30;5.13;;;;;;;14.49;100.00;99569.16;12216010;19;20505;-78
2023/07/26 12:20:58;;;;;;;13.63;5.00;;;;;;;14.43;100.00;99563.94;12184279;19;20038;-79
2023/07/26 12:25:08;;;;;;;9.50;4.75;;;;;;;14.76;100.00;99566.06;12207342;19;20018;-80
2023/07/26 12:29:10;;;;;;;16.25;6.78;;;;;;;15.20;100.00;99561.66;12208960;19;20086;-80
2023/07/26 12:33:13;;;;;;;;;;;;;;;15.47;100.00;99559.28;12187578;19;20006;-79
2023/07/26 12:37:16;;;;;;;12.70;5.30;;;;;;;16.18;100.00;99551.47;12211103;19;19934;-79
2023/07/26 12:41:18;;;;;;;9.40;4.35;;;;;;;17.66;100.00;99562.69;12207210;19;20014;-80
2023/07/26 12:45:21;;;;;;;7.40;3.35;;;;;;;18.90;100.00;99560.19;12189950;19;20031;-81
2023/07/26 12:49:22;;;;;;;7.68;3.90;;;;;;;19.72;100.00;99552.78;12210539;19;20026;-80
2023/07/26 12:53:24;;;;;;;6.20;2.85;;;;;;;20.56;100.00;99538.03;12211298;19;20026;-80
2023/07/26 12:57:26;;;;;;;5.50;2.75;;;;;;;20.70;100.00;99543.50;12194872;19;20022;-81
2023/07/26 13:01:28;;;;;;;4.87;2.97;;;;;;;20.39;100.00;99540.72;12212323;19;20385;-80
2023/07/26 13:05:30;;;;;;;5.07;2.30;;;;;;;20.29;100.00;99536.22;12213481;19;20007;-80
2023/07/26 13:09:32;;;;;;;4.15;2.30;;;;;;;21.48;100.00;99537.28;12190160;19;20006;-81
2023/07/26 13:13:33;;;;;;;4.60;2.27;;;;;;;22.66;100.00;99525.66;12212439;19;20047;-81
2023/07/26 13:17:35;;;;;;;5.37;2.40;;;;;;;23.54;100.00;99532.41;12214613;19;20027;-82
2023/07/26 13:21:37;;;;;;;8.00;2.45;;;;;;;24.05;100.00;99538.75;12194525;19;20007;-82
2023/07/26 13:25:40;;;;;;;7.85;2.88;;;;;;;25.41;91.97;99530.06;12222991;19;20018;-81
2023/07/26 13:29:41;;;;;;;3.95;2.22;;;;;;;26.40;78.08;99535.31;12186828;19;20023;-82
2023/07/26 13:33:43;;;;;;;4.10;2.10;;;;;;;25.52;79.16;99538.03;12209001;19;20002;-82
2023/07/26 13:37:52;;;;;;;5.10;2.03;;;;;;;24.96;73.17;99544.31;12212022;19;20017;-82
2023/07/26 13:41:53;;;;;;;6.13;2.22;;;;;;;24.48;77.72;99551.53;12185255;19;20018;-82
2023/07/26 13:45:55;;;;;;;5.07;2.38;;;;;;;25.85;63.09;99544.31;12208665;19;20070;-81
2023/07/26 13:49:57;;;;;;;2.88;1.63;;;;;;;26.21;62.94;99547.31;12218032;19;20846;-83
2023/07/26 13:54:00;;;;;;;;;;;;;;;26.17;73.68;99549.22;12202053;19;20018;-84
2023/07/26 13:58:01;;;;;;;4.45;2.25;;;;;;;27.59;56.96;99540.69;12220973;19;20410;-82
2023/07/26 14:02:04;;;;;;;5.88;2.55;;;;;;;29.03;49.77;99536.59;12216194;19;20042;-85
2023/07/26 14:06:07;;;;;;;6.40;2.58;;;;;;;30.10;42.69;99525.06;12195501;19;20006;-83
2023/07/26 14:10:08;;;;;;;5.53;2.67;;;;;;;30.88;40.74;99539.31;12218540;19;20028;-84
2023/07/26 14:14:10;;;;;;;4.45;3.10;;;;;;;31.72;36.63;99548.81;12218641;19;20521;-85
2023/07/26 14:18:12;;;;;;;;;;;;;;;32.03;33.87;99540.84;12196501;19;20022;-83
2023/07/26 14:22:14;;;;;;;4.75;2.47;;;;;;;32.12;34.50;99543.31;12217549;19;19911;-85
2023/07/26 14:26:15;;;;;;;7.70;3.92;;;;;;;33.02;35.14;99550.00;12216719;19;20074;-86
2023/07/26 14:30:17;;;;;;;3.08;1.90;;;;;;;33.57;29.49;99544.66;12195038;19;20014;-82
2023/07/26 14:34:19;;;;;;;3.55;1.60;;;;;;;33.72;29.45;99541.75;12215812;19;20031;-82
2023/07/26 14:38:23;;;;;;;2.50;1.90;;;;;;;31.93;29.34;99533.09;12221456;19;20467;-83
2023/07/26 14:42:25;;;;;;;4.93;2.20;;;;;;;31.29;30.49;99534.34;12190745;19;20023;-84
2023/07/26 14:46:26;;;;;;;3.95;2.10;;;;;;;32.11;30.02;99539.66;12218910;19;20017;-83
2023/07/26 14:50:28;;;;;;;5.25;2.30;;;;;;;31.97;29.20;99536.75;12220681;19;20123;-80
2023/07/26 14:54:30;;;;;;;4.30;2.30;;;;;;;30.84;30.15;99529.91;12199394;19;20367;-83
2023/07/26 14:58:32;;;;;;;4.15;1.98;;;;;;;29.41;32.62;99536.75;12216452;19;20083;-82
2023/07/26 15:02:33;;;;;;;;;;;;;;;27.41;35.41;99533.81;12206799;19;20015;-84
2023/07/26 15:06:36;;;;;;;4.07;2.15;;;;;;;25.77;36.41;99536.78;12189686;19;19906;-84
2023/07/26 15:10:39;;;;;;;5.47;2.10;;;;;;;24.16;38.99;99559.66;12211911;19;20014;-82
2023/07/26 15:14:41;;;;;;;;;;;;;;;22.46;45.34;99589.81;12197619;19;20086;-81
2023/07/26 15:18:42;;;;;;;5.60;1.67;;;;;;;20.60;54.26;99592.22;12224468;19;19914;-81
2023/07/26 15:22:44;;;;;;;7.07;1.77;;;;;;;19.48;59.27;99597.75;12215037;19;20478;-84
2023/07/26 15:26:46;;;;;;;2.93;1.83;;;;;;;18.98;62.40;99592.97;12190530;19;20067;-84
2023/07/26 15:30:48;;;;;;;5.68;1.10;;;;;;;19.00;64.75;99587.06;12213074;19;19998;-80
2023/07/26 15:34:55;;;;;;;2.70;1.40;;;;;;;19.04;64.70;99588.94;12213181;19;20031;-83
2023/07/26 15:38:57;;;;;;;1.38;1.05;;;;;;;19.24;66.04;99589.63;12196217;19;20015;-82
2023/07/26 15:42:59;;;;;;;3.53;1.60;;;;;;;19.91;64.12;99609.34;12210833;19;20090;-82
2023/07/26 15:47:01;;;;;;;2.90;1.40;;;;;;;19.70;65.59;99606.22;12214822;19;20007;-82
2023/07/26 15:51:06;;;;;;;4.00;1.50;;;;;;;19.74;64.26;99596.06;12188992;19;20018;-84
2023/07/26 15:55:08;;;;;;;3.60;1.25;;;;;;;19.71;65.98;99598.66;12217540;19;20828;-80
2023/07/26 15:59:10;;;;;;;1.65;1.08;;;;;;;19.56;63.84;99605.41;12213404;19;20070;-81
2023/07/26 16:03:12;;;;;;;2.15;1.35;;;;;;;19.48;64.80;99587.44;12189627;19;20007;-81
2023/07/26 16:07:14;;;;;;;3.67;1.40;;;;;;;19.74;64.20;99595.22;12209251;19;20002;-82
2023/07/26 16:11:17;;;;;;;1.70;1.00;;;;;;;20.00;65.32;99589.84;12207606;19;20018;-82
2023/07/26 16:15:19;;;;;;;3.45;1.15;;;;;;;20.10;62.78;99583.16;12195248;19;20014;-82
2023/07/26 16:19:24;;;;;;;3.88;1.40;;;;;;;20.14;62.24;99578.59;12209643;19;20025;-84
2023/07/26 16:23:29;;;;;;;2.95;1.23;;;;;;;20.08;61.42;99582.66;12212677;19;20015;-83
2023/07/26 16:27:31;;;;;;;1.98;1.10;;;;;;;20.02;62.52;99570.78;12190002;19;20054;-83
2023/07/26 16:31:33;;;;;;;1.77;0.97;;;;;;;20.00;60.63;99571.09;12212250;19;20014;-84
2023/07/26 16:35:35;;;;;;;1.50;1.00;;;;;;;20.04;60.34;99563.69;12211465;19;20014;-83
2023/07/26 16:39:36;;;;;;;2.72;1.15;;;;;;;19.95;60.74;99573.19;12188883;19;20081;-84
2023/07/26 16:43:38;;;;;;;2.57;1.10;;;;;;;19.85;60.22;99568.69;12207828;19;20074;-84
2023/07/26 16:47:40;;;;;;;2.40;1.17;;;;;;;19.87;61.90;99565.56;12187521;19;20050;-84
2023/07/26 16:51:42;;;;;;;2.83;1.05;;;;;;;19.97;59.71;99563.34;12210044;19;20014;-80
2023/07/26 16:55:44;;;;;;;0.93;0.65;;;;;;;19.94;59.33;99560.34;12215039;19;20027;-83
2023/07/26 16:59:46;;;;;;;4.07;1.33;;;;;;;19.82;56.79;99568.50;12186250;19;20007;-82
2023/07/26 17:03:48;;;;;;;2.47;1.23;;;;;;;19.62;58.04;99558.59;12205845;19;20030;-83
2023/07/26 17:07:49;;;;;;;3.33;1.23;;;;;;;19.61;57.65;99557.78;12207770;19;20010;-84
2023/07/26 17:11:52;;;;;;;2.22;1.25;;;;;;;19.62;57.15;99553.81;12184763;19;20017;-83
2023/07/26 17:15:54;;;;;;;3.93;1.20;;;;;;;19.73;58.88;99558.06;12218280;19;20007;-83
2023/07/26 17:19:56;;;;;;;2.33;1.40;;;;;;;19.78;57.42;99551.50;12203835;19;20080;-80
2023/07/26 17:23:58;;;;;;;2.63;1.40;;;;;;;19.65;58.26;99550.44;12182897;19;20003;-81
2023/07/26 17:28:00;;;;;;;2.60;1.17;;;;;;;19.63;58.91;99543.47;12204769;19;20009;-82
2023/07/26 17:32:01;;;;;;;2.78;1.20;;;;;;;19.80;58.21;99547.25;12206370;19;20010;-83
2023/07/26 17:36:13;;;;;;;3.13;1.35;;;;;;;19.72;59.34;99545.25;12186951;19;20470;-81
2023/07/26 17:40:17;;;;;;;2.20;1.17;;;;;;;19.63;60.24;99546.25;12212858;19;20022;-82
2023/07/26 17:44:19;;;;;;;2.78;1.40;;;;;;;19.51;60.49;99550.47;12214931;19;20028;-83
2023/07/26 17:48:21;;;;;;;2.55;1.20;;;;;;;19.42;61.59;99552.34;12181470;19;20013;-81
2023/07/26 17:52:22;;;;;;;3.38;1.40;;;;;;;19.69;59.50;99556.22;12200130;19;20427;-83
2023/07/26 17:56:24;;;;;;;2.70;1.35;;;;;;;19.72;59.20;99561.16;12214763;19;20374;-81
2023/07/26 18:00:26;;;;;;;3.95;1.10;;;;;;;19.49;60.22;99563.91;12176601;19;20086;-83
2023/07/26 18:04:28;;;;;;;2.85;1.40;;;;;;;19.41;61.77;99563.84;12198768;19;20007;-80
2023/07/26 18:08:33;;;;;;;2.85;1.35;;;;;;;19.40;61.14;99565.81;12198979;19;20006;-83
2023/07/26 18:12:35;;;;;;;2.28;1.25;;;;;;;19.26;61.77;99559.44;12167561;19;20007;-81
2023/07/26 18:16:38;;;;;;;2.33;1.60;;;;;;;19.07;62.63;99571.56;12209307;19;20046;-80
2023/07/26 18:20:40;;;;;;;1.75;1.40;;;;;;;19.28;62.69;99562.75;12177210;19;20011;-81
2023/07/26 18:24:42;;;;;;;2.15;1.48;;;;;;;19.13;63.17;99563.91;12203090;19;20018;-81
2023/07/26 18:28:44;;;;;;;2.72;1.40;;;;;;;18.83;64.38;99582.13;12204321;19;20604;-82
2023/07/26 18:32:46;;;;;;;3.83;1.20;;;;;;;18.67;65.42;99576.81;12182963;19;20019;-80
2023/07/26 18:36:47;;;;;;;2.67;1.40;;;;;;;18.65;66.35;99581.06;12210564;19;20011;-82
2023/07/26 18:40:49;;;;;;;3.05;1.30;;;;;;;18.40;67.54;99582.38;12213926;19;20818;-82
2023/07/26 18:44:51;;;;;;;3.47;1.60;;;;;;;18.12;69.81;99582.31;12195461;19;20010;-82
2023/07/26 18:48:52;;;;;;;2.55;1.60;;;;;;;17.87;71.42;99583.56;12216984;19;20030;-83